createdAt,value
2018-12-27T00:00:24.173Z,83.03
2018-12-27T00:02:56.451Z,82.32
2018-12-27T00:05:25.241Z,82.48
2018-12-27T00:07:54.042Z,83.06
2018-12-27T00:10:22.823Z,83.04
2018-12-27T00:12:51.723Z,82.50
2018-12-27T00:15:22.727Z,82.98
2018-12-27T00:17:51.633Z,82.91
2018-12-27T00:20:21.351Z,82.92
2018-12-27T00:22:50.139Z,82.50
2018-12-27T00:25:20.538Z,82.36
2018-12-27T00:27:49.227Z,82.57
2018-12-27T00:30:24.859Z,82.71
2018-12-27T00:32:54.473Z,82.46
2018-12-27T00:35:23.252Z,82.58
2018-12-27T00:37:52.842Z,82.39
2018-12-27T00:40:22.409Z,82.54
2018-12-27T00:42:51.887Z,82.07
2018-12-27T00:45:20.786Z,82.34
2018-12-27T00:47:49.686Z,82.67
2018-12-27T00:50:18.460Z,82.76
2018-12-27T00:52:47.268Z,82.61
2018-12-27T00:55:16.089Z,82.14
2018-12-27T00:57:44.907Z,82.79
2018-12-27T01:00:13.699Z,82.61
2018-12-27T01:02:42.560Z,82.94
2018-12-27T01:05:11.352Z,82.40
2018-12-27T01:07:40.134Z,82.53
2018-12-27T01:10:08.923Z,82.73
2018-12-27T01:12:38.856Z,82.61
2018-12-27T01:15:07.656Z,82.56
2018-12-27T01:17:36.468Z,82.54
2018-12-27T01:20:05.261Z,82.23
2018-12-27T01:22:34.084Z,82.29
2018-12-27T01:25:03.455Z,82.07
2018-12-27T01:27:33.370Z,82.79
2018-12-27T01:30:02.149Z,82.43
2018-12-27T01:32:30.943Z,82.55
2018-12-27T01:34:59.736Z,82.07
2018-12-27T01:37:28.519Z,82.08
2018-12-27T01:39:58.138Z,82.17
2018-12-27T01:42:27.015Z,82.77
2018-12-27T01:44:55.771Z,82.54
2018-12-27T01:47:24.584Z,82.29
2018-12-27T01:49:53.379Z,82.56
2018-12-27T01:52:22.161Z,82.39
2018-12-27T01:54:50.949Z,82.70
2018-12-27T01:57:19.735Z,82.73
2018-12-27T01:59:48.523Z,82.77
2018-12-27T02:02:17.315Z,82.87
2018-12-27T02:04:46.636Z,83.53
2018-12-27T02:07:15.454Z,82.69
2018-12-27T02:09:44.243Z,83.21
2018-12-27T02:12:13.040Z,83.23
2018-12-27T02:14:41.876Z,83.67
2018-12-27T02:17:10.660Z,83.87
2018-12-27T02:19:39.449Z,83.73
2018-12-27T02:22:08.219Z,83.33
2018-12-27T02:24:37.754Z,84.32
2018-12-27T02:27:07.612Z,84.32
2018-12-27T02:29:36.342Z,83.90
2018-12-27T02:32:05.134Z,84.15
2018-12-27T02:34:34.655Z,84.54
2018-12-27T02:37:03.576Z,84.16
2018-12-27T02:39:32.377Z,84.01
2018-12-27T02:42:01.162Z,84.84
2018-12-27T02:44:29.975Z,84.73
2018-12-27T02:46:58.780Z,84.36
2018-12-27T02:49:27.554Z,84.62
2018-12-27T02:51:56.347Z,85.19
2018-12-27T02:54:25.127Z,84.59
2018-12-27T02:56:53.935Z,85.38
2018-12-27T02:59:23.627Z,85.77
2018-12-27T03:01:52.420Z,85.58
2018-12-27T03:04:22.275Z,84.93
2018-12-27T03:06:51.060Z,85.27
2018-12-27T03:09:19.880Z,85.76
2018-12-27T03:11:48.655Z,86.01
2018-12-27T03:14:17.991Z,85.53
2018-12-27T03:16:46.767Z,85.08
2018-12-27T03:19:15.562Z,86.04
2018-12-27T03:21:46.080Z,85.68
2018-12-27T03:24:14.872Z,85.35
2018-12-27T03:26:43.682Z,86.18
2018-12-27T03:29:12.509Z,86.62
2018-12-27T03:31:41.326Z,86.17
2018-12-27T03:34:10.412Z,85.74
2018-12-27T03:36:39.201Z,85.60
2018-12-27T03:39:07.984Z,86.98
2018-12-27T03:41:36.818Z,86.25
2018-12-27T03:44:05.605Z,86.74
2018-12-27T03:46:34.378Z,85.86
2018-12-27T03:49:03.182Z,86.39
2018-12-27T03:51:32.819Z,87.08
2018-12-27T03:54:01.635Z,86.07
2018-12-27T03:56:31.383Z,86.24
2018-12-27T03:59:00.635Z,86.20
2018-12-27T04:01:29.416Z,86.09
2018-12-27T04:04:01.590Z,86.35
2018-12-27T04:06:27.875Z,86.28
2018-12-27T04:08:58.358Z,87.47
2018-12-27T04:11:27.169Z,87.10
2018-12-27T04:13:55.959Z,87.00
2018-12-27T04:16:24.729Z,86.28
2018-12-27T04:18:53.611Z,87.32
2018-12-27T04:21:22.675Z,87.10
2018-12-27T04:23:52.308Z,87.02
2018-12-27T04:26:21.563Z,86.62
2018-12-27T04:28:50.405Z,87.42
2018-12-27T04:31:19.659Z,86.15
2018-12-27T04:33:48.477Z,87.31
2018-12-27T04:36:17.285Z,86.80
2018-12-27T04:38:46.122Z,87.00
2018-12-27T04:41:15.462Z,86.79
2018-12-27T04:43:44.395Z,87.01
2018-12-27T04:46:13.168Z,87.53
2018-12-27T04:48:41.975Z,86.60
2018-12-27T04:51:10.768Z,87.01
2018-12-27T04:53:40.546Z,87.04
2018-12-27T04:56:09.328Z,86.25
2018-12-27T04:58:38.244Z,86.93
2018-12-27T05:01:07.697Z,87.07
2018-12-27T05:03:36.509Z,86.88
2018-12-27T05:06:11.664Z,87.30
2018-12-27T05:08:40.507Z,87.46
2018-12-27T05:11:10.294Z,87.07
2018-12-27T05:13:39.750Z,87.38
2018-12-27T05:16:09.346Z,88.07
2018-12-27T05:18:38.242Z,86.72
2018-12-27T05:21:07.123Z,87.34
2018-12-27T05:23:36.207Z,87.54
2018-12-27T05:26:05.551Z,87.31
2018-12-27T05:28:34.404Z,86.97
2018-12-27T05:31:04.436Z,87.05
2018-12-27T05:33:35.130Z,87.71
2018-12-27T05:36:03.893Z,87.37
2018-12-27T05:38:32.699Z,88.10
2018-12-27T05:41:01.485Z,87.49
2018-12-27T05:43:30.308Z,87.75
2018-12-27T05:45:59.207Z,87.33
2018-12-27T05:48:28.037Z,88.16
2018-12-27T05:50:56.887Z,87.54
2018-12-27T05:53:25.714Z,88.05
2018-12-27T05:55:54.554Z,87.60
2018-12-27T05:58:23.402Z,87.62
2018-12-27T06:00:52.204Z,86.76
2018-12-27T06:03:21.051Z,87.42
2018-12-27T06:05:50.200Z,87.20
2018-12-27T06:08:18.987Z,86.80
2018-12-27T06:10:47.864Z,87.16
2018-12-27T06:13:18.584Z,87.35
2018-12-27T06:15:47.427Z,87.06
2018-12-27T06:18:16.318Z,87.50
2018-12-27T06:20:45.119Z,87.57
2018-12-27T06:23:14.451Z,87.70
2018-12-27T06:25:43.244Z,88.33
2018-12-27T06:28:12.024Z,88.29
2018-12-27T06:30:40.819Z,87.94
2018-12-27T06:33:10.762Z,87.53
2018-12-27T06:35:40.335Z,87.28
2018-12-27T06:38:09.123Z,87.73
2018-12-27T06:40:39.076Z,88.00
2018-12-27T06:43:07.952Z,87.37
2018-12-27T06:45:36.838Z,87.78
2018-12-27T06:48:07.008Z,87.04
2018-12-27T06:50:35.883Z,86.89
2018-12-27T06:53:04.675Z,88.03
2018-12-27T06:55:34.731Z,87.11
2018-12-27T06:58:03.563Z,87.54
2018-12-27T07:00:32.877Z,88.35
2018-12-27T07:03:01.750Z,88.64
2018-12-27T07:05:30.691Z,87.81
2018-12-27T07:08:00.838Z,87.95
2018-12-27T07:10:29.830Z,87.67
2018-12-27T07:12:58.615Z,87.91
2018-12-27T07:15:28.073Z,88.11
2018-12-27T07:17:57.514Z,88.48
2018-12-27T07:20:26.576Z,88.22
2018-12-27T07:22:55.424Z,89.12
2018-12-27T07:25:25.016Z,88.49
2018-12-27T07:27:53.882Z,88.55
2018-12-27T07:30:22.685Z,89.25
2018-12-27T07:32:51.479Z,88.72
2018-12-27T07:35:21.268Z,88.49
2018-12-27T07:37:50.047Z,89.02
2018-12-27T07:40:18.895Z,88.06
2018-12-27T07:42:47.960Z,88.70
2018-12-27T07:45:17.287Z,88.75
2018-12-27T07:47:47.243Z,87.88
2018-12-27T07:50:16.223Z,88.48
2018-12-27T07:52:45.066Z,87.19
2018-12-27T07:55:13.850Z,88.40
2018-12-27T07:57:43.759Z,88.32
2018-12-27T08:00:12.583Z,87.45
2018-12-27T08:02:41.367Z,87.98
2018-12-27T08:05:10.819Z,87.78
2018-12-27T08:07:39.621Z,87.65
2018-12-27T08:10:08.416Z,88.08
2018-12-27T08:12:37.720Z,87.84
2018-12-27T08:15:07.093Z,87.50
2018-12-27T08:17:35.879Z,88.11
2018-12-27T08:20:04.783Z,88.46
2018-12-27T08:22:33.623Z,88.04
2018-12-27T08:25:03.147Z,88.09
2018-12-27T08:27:32.602Z,88.27
2018-12-27T08:30:01.383Z,87.93
2018-12-27T08:32:31.649Z,87.21
2018-12-27T08:35:01.160Z,87.40
2018-12-27T08:37:29.994Z,87.54
2018-12-27T08:39:59.151Z,87.42
2018-12-27T08:42:28.073Z,87.72
2018-12-27T08:44:57.988Z,87.04
2018-12-27T08:47:26.775Z,87.20
2018-12-27T08:49:55.627Z,87.01
2018-12-27T08:52:24.461Z,87.11
2018-12-27T08:54:53.240Z,86.93
2018-12-27T08:57:22.028Z,86.32
2018-12-27T08:59:51.411Z,86.79
2018-12-27T09:02:20.303Z,86.92
2018-12-27T09:04:49.620Z,86.26
2018-12-27T09:07:18.443Z,86.50
2018-12-27T09:09:47.832Z,86.29
2018-12-27T09:12:16.679Z,86.39
2018-12-27T09:14:45.633Z,86.32
2018-12-27T09:17:14.489Z,86.22
2018-12-27T09:19:43.277Z,85.67
2018-12-27T09:22:12.071Z,85.00
2018-12-27T09:24:40.911Z,85.36
2018-12-27T09:27:10.423Z,84.80
2018-12-27T09:29:39.326Z,84.52
2018-12-27T09:32:08.244Z,84.18
2018-12-27T09:34:37.793Z,83.79
2018-12-27T09:37:06.581Z,83.00
2018-12-27T09:39:35.424Z,83.47
2018-12-27T09:42:05.223Z,83.10
2018-12-27T09:44:35.370Z,83.68
2018-12-27T09:47:04.255Z,83.04
2018-12-27T09:49:37.087Z,83.17
2018-12-27T09:52:05.835Z,82.11
2018-12-27T09:54:35.592Z,82.20
2018-12-27T09:57:04.432Z,82.36
2018-12-27T09:59:33.285Z,81.78
2018-12-27T10:02:02.141Z,80.98
2018-12-27T10:04:32.447Z,81.12
2018-12-27T10:07:02.295Z,80.93
2018-12-27T10:09:32.792Z,80.40
2018-12-27T10:12:02.397Z,80.52
2018-12-27T10:14:31.235Z,80.16
2018-12-27T10:17:00.061Z,80.13
2018-12-27T10:19:29.084Z,80.20
2018-12-27T10:21:57.839Z,79.83
2018-12-27T10:24:27.820Z,80.24
2018-12-27T10:26:56.716Z,79.88
2018-12-27T10:29:25.482Z,80.51
2018-12-27T10:31:54.962Z,80.12
2018-12-27T10:34:23.795Z,80.53
2018-12-27T10:36:52.583Z,80.21
2018-12-27T10:39:21.375Z,80.63
2018-12-27T10:41:50.977Z,79.83
2018-12-27T10:44:19.864Z,79.47
2018-12-27T10:46:48.655Z,79.27
2018-12-27T10:49:17.554Z,78.91
2018-12-27T10:51:46.455Z,78.19
2018-12-27T10:54:15.237Z,76.98
2018-12-27T10:56:44.091Z,77.04
2018-12-27T10:59:12.899Z,76.02
2018-12-27T11:01:41.684Z,75.91
2018-12-27T11:04:11.339Z,75.47
2018-12-27T11:06:40.879Z,74.89
2018-12-27T11:09:09.794Z,74.18
2018-12-27T11:11:38.618Z,73.42
2018-12-27T11:14:08.571Z,72.81
2018-12-27T11:16:38.670Z,71.77
2018-12-27T11:19:07.551Z,71.46
2018-12-27T11:21:37.097Z,71.84
2018-12-27T11:24:06.537Z,70.93
2018-12-27T11:26:36.403Z,70.37
2018-12-27T11:29:05.257Z,69.93
2018-12-27T11:31:34.212Z,69.34
2018-12-27T11:34:03.017Z,68.45
2018-12-27T11:36:31.916Z,67.45
2018-12-27T11:39:00.740Z,67.32
2018-12-27T11:41:29.576Z,66.74
2018-12-27T11:43:58.372Z,67.14
2018-12-27T11:46:27.665Z,65.57
2018-12-27T11:48:56.513Z,63.74
2018-12-27T11:51:25.863Z,64.23
2018-12-27T11:53:54.651Z,63.57
2018-12-27T11:56:23.522Z,64.91
2018-12-27T11:58:53.446Z,66.06
2018-12-27T12:01:22.988Z,66.04
2018-12-27T12:03:53.216Z,65.83
2018-12-27T12:06:22.708Z,66.10
2018-12-27T12:08:51.555Z,66.89
2018-12-27T12:11:21.375Z,66.45
2018-12-27T12:13:51.082Z,65.81
2018-12-27T12:16:20.037Z,65.34
2018-12-27T12:18:48.807Z,65.25
2018-12-27T12:21:17.720Z,65.74
2018-12-27T12:23:46.507Z,66.16
2018-12-27T12:26:15.479Z,66.61
2018-12-27T12:28:44.259Z,66.38
2018-12-27T12:31:13.104Z,66.80
2018-12-27T12:33:41.911Z,66.48
2018-12-27T12:36:11.132Z,66.65
2018-12-27T12:38:39.515Z,66.03
2018-12-27T12:41:08.386Z,66.74
2018-12-27T12:43:37.249Z,65.84
2018-12-27T12:46:06.083Z,66.29
2018-12-27T12:48:34.926Z,66.41
2018-12-27T12:51:04.570Z,66.17
2018-12-27T12:53:33.363Z,65.86
2018-12-27T12:56:02.584Z,66.08
2018-12-27T12:58:31.504Z,66.04
2018-12-27T13:01:00.283Z,66.58
2018-12-27T13:03:29.092Z,65.82
2018-12-27T13:05:59.027Z,65.57
2018-12-27T13:08:29.154Z,65.75
2018-12-27T13:10:57.931Z,66.45
2018-12-27T13:13:26.755Z,66.07
2018-12-27T13:15:56.491Z,66.80
2018-12-27T13:18:25.316Z,66.25
2018-12-27T13:20:54.114Z,66.41
2018-12-27T13:23:22.893Z,66.43
2018-12-27T13:25:52.643Z,66.18
2018-12-27T13:28:21.426Z,66.23
2018-12-27T13:30:50.208Z,65.96
2018-12-27T13:33:19.035Z,66.25
2018-12-27T13:35:48.957Z,64.84
2018-12-27T13:38:17.733Z,65.10
2018-12-27T13:40:47.750Z,65.83
2018-12-27T13:43:16.578Z,65.74
2018-12-27T13:45:45.397Z,65.81
2018-12-27T13:48:14.272Z,65.57
2018-12-27T13:50:44.241Z,67.11
2018-12-27T13:53:13.052Z,66.37
2018-12-27T13:55:42.588Z,66.77
2018-12-27T13:58:13.434Z,66.27
2018-12-27T14:00:42.210Z,67.20
2018-12-27T14:03:11.003Z,66.54
2018-12-27T14:05:39.947Z,67.21
2018-12-27T14:08:08.743Z,67.04
2018-12-27T14:10:37.564Z,66.94
2018-12-27T14:13:06.410Z,67.46
2018-12-27T14:15:35.263Z,67.62
2018-12-27T14:18:04.189Z,67.57
2018-12-27T14:20:33.846Z,66.30
2018-12-27T14:23:03.034Z,66.94
2018-12-27T14:25:31.891Z,67.03
2018-12-27T14:28:00.775Z,67.34
2018-12-27T14:30:30.177Z,67.34
2018-12-27T14:32:59.302Z,66.91
2018-12-27T14:35:28.174Z,66.97
2018-12-27T14:37:57.012Z,67.34
2018-12-27T14:40:27.617Z,67.47
2018-12-27T14:42:56.523Z,66.92
2018-12-27T14:45:25.312Z,67.31
2018-12-27T14:47:54.672Z,67.38
2018-12-27T14:50:24.518Z,67.21
2018-12-27T14:52:53.300Z,67.98
2018-12-27T14:55:22.231Z,67.56
2018-12-27T14:57:51.019Z,67.77
2018-12-27T15:00:19.848Z,68.48
2018-12-27T15:02:48.639Z,68.24
2018-12-27T15:05:18.492Z,68.11
2018-12-27T15:07:47.261Z,68.99
2018-12-27T15:10:16.073Z,69.16
2018-12-27T15:12:46.323Z,68.11
2018-12-27T15:15:15.218Z,68.79
2018-12-27T15:17:44.031Z,68.97
2018-12-27T15:20:12.912Z,68.71
2018-12-27T15:22:42.364Z,68.85
2018-12-27T15:25:11.200Z,68.71
2018-12-27T15:27:40.036Z,68.74
2018-12-27T15:30:08.879Z,68.06
2018-12-27T15:32:37.678Z,68.46
2018-12-27T15:35:06.614Z,69.45
2018-12-27T15:37:35.385Z,69.19
2018-12-27T15:40:05.703Z,69.45
2018-12-27T15:42:33.217Z,69.74
2018-12-27T15:45:03.467Z,69.72
2018-12-27T15:47:32.364Z,69.71
2018-12-27T15:50:02.214Z,69.91
2018-12-27T15:52:31.029Z,69.93
2018-12-27T15:54:59.806Z,70.75
2018-12-27T15:57:29.087Z,70.82
2018-12-27T15:59:57.852Z,70.74
2018-12-27T16:02:26.691Z,70.41
2018-12-27T16:04:55.582Z,70.69
2018-12-27T16:07:24.390Z,70.52
2018-12-27T16:09:54.158Z,71.09
2018-12-27T16:12:23.567Z,71.33
2018-12-27T16:14:52.363Z,71.11
2018-12-27T16:17:21.205Z,71.11
2018-12-27T16:19:51.231Z,71.06
2018-12-27T16:22:20.169Z,71.92
2018-12-27T16:24:49.724Z,72.18
2018-12-27T16:27:18.567Z,71.57
2018-12-27T16:29:47.997Z,71.95
2018-12-27T16:32:23.517Z,71.63
2018-12-27T16:34:52.346Z,71.92
2018-12-27T16:37:21.635Z,72.47
2018-12-27T16:39:50.666Z,71.96
2018-12-27T16:42:22.037Z,71.54
2018-12-27T16:44:48.383Z,72.38
2018-12-27T16:47:25.967Z,72.09
2018-12-27T16:49:54.990Z,72.69
2018-12-27T16:52:23.918Z,73.44
2018-12-27T16:54:52.702Z,73.46
2018-12-27T16:57:22.075Z,73.30
2018-12-27T16:59:59.196Z,73.60
2018-12-27T17:02:28.039Z,74.04
2018-12-27T17:04:56.867Z,73.64
2018-12-27T17:07:25.663Z,74.05
2018-12-27T17:09:54.451Z,74.23
2018-12-27T17:12:23.976Z,74.36
2018-12-27T17:14:52.758Z,74.12
2018-12-27T17:17:21.543Z,74.17
2018-12-27T17:19:50.326Z,73.95
2018-12-27T17:22:19.315Z,74.57
2018-12-27T17:24:48.476Z,74.41
2018-12-27T17:27:18.757Z,74.42
2018-12-27T17:29:48.115Z,74.96
2018-12-27T17:32:16.986Z,75.49
2018-12-27T17:34:45.835Z,75.50
2018-12-27T17:37:15.230Z,75.21
2018-12-27T17:39:44.492Z,75.67
2018-12-27T17:42:13.401Z,75.71
2018-12-27T17:44:42.195Z,75.53
2018-12-27T17:47:12.378Z,76.66
2018-12-27T17:49:41.286Z,76.94
2018-12-27T17:52:10.200Z,76.94
2018-12-27T17:54:39.026Z,76.57
2018-12-27T17:57:07.849Z,77.22
2018-12-27T17:59:37.972Z,76.52
2018-12-27T18:02:06.747Z,76.69
2018-12-27T18:04:35.538Z,76.71
2018-12-27T18:07:04.323Z,76.63
2018-12-27T18:09:34.359Z,77.47
2018-12-27T18:12:03.147Z,77.79
2018-12-27T18:14:32.051Z,77.39
2018-12-27T18:17:01.586Z,77.73
2018-12-27T18:19:30.342Z,77.50
2018-12-27T18:21:59.127Z,77.46
2018-12-27T18:24:28.666Z,77.46
2018-12-27T18:26:57.448Z,78.01
2018-12-27T18:29:26.315Z,77.53
2018-12-27T18:31:55.121Z,78.33
2018-12-27T18:34:24.942Z,77.51
2018-12-27T18:36:54.114Z,78.02
2018-12-27T18:39:22.914Z,78.20
2018-12-27T18:41:51.784Z,78.24
2018-12-27T18:44:21.195Z,78.11
2018-12-27T18:46:50.008Z,77.95
2018-12-27T18:49:20.699Z,78.28
2018-12-27T18:51:48.815Z,79.28
2018-12-27T18:54:17.690Z,79.34
2018-12-27T18:56:46.476Z,79.60
2018-12-27T18:59:15.815Z,79.04
2018-12-27T19:01:45.345Z,79.28
2018-12-27T19:04:14.639Z,78.91
2018-12-27T19:06:43.430Z,79.20
2018-12-27T19:09:12.999Z,79.24
2018-12-27T19:11:53.298Z,79.59
2018-12-27T19:14:22.475Z,79.75
2018-12-27T19:16:52.141Z,79.11
2018-12-27T19:19:20.908Z,79.33
2018-12-27T19:22:16.812Z,80.31
2018-12-27T19:24:45.731Z,80.06
2018-12-27T19:27:14.717Z,80.16
2018-12-27T19:29:43.638Z,79.89
2018-12-27T19:32:12.528Z,80.07
2018-12-27T19:34:41.391Z,80.33
2018-12-27T19:37:10.286Z,80.03
2018-12-27T19:39:39.097Z,80.38
2018-12-27T19:42:07.886Z,80.57
2018-12-27T19:44:36.684Z,80.15
2018-12-27T19:47:05.463Z,79.98
2018-12-27T19:49:34.311Z,80.24
2018-12-27T19:52:03.243Z,80.64
2018-12-27T19:54:32.410Z,80.12
2018-12-27T19:57:01.236Z,80.81
2018-12-27T19:59:30.939Z,81.21
2018-12-27T20:01:59.705Z,80.96
2018-12-27T20:04:28.579Z,80.68
2018-12-27T20:06:57.424Z,81.24
2018-12-27T20:09:26.507Z,81.03
2018-12-27T20:11:55.264Z,81.38
2018-12-27T20:14:24.055Z,80.84
2018-12-27T20:16:52.849Z,81.65
2018-12-27T20:19:21.995Z,80.66
2018-12-27T20:21:50.771Z,80.76
2018-12-27T20:24:19.571Z,81.29
2018-12-27T20:26:48.396Z,81.21
2018-12-27T20:29:18.336Z,80.73
2018-12-27T20:31:47.143Z,81.32
2018-12-27T20:34:16.522Z,81.33
2018-12-27T20:36:45.320Z,81.25
2018-12-27T20:39:14.308Z,81.83
2018-12-27T20:41:43.149Z,81.69
2018-12-27T20:44:12.912Z,81.90
2018-12-27T20:46:41.724Z,82.39
2018-12-27T20:49:10.579Z,82.07
2018-12-27T20:51:39.359Z,82.58
2018-12-27T20:54:08.161Z,82.28
2018-12-27T20:56:36.948Z,82.05
2018-12-27T20:59:05.846Z,82.84
2018-12-27T21:01:34.639Z,82.68
2018-12-27T21:04:04.132Z,82.82
2018-12-27T21:06:32.924Z,81.88
2018-12-27T21:09:01.768Z,81.93
2018-12-27T21:11:30.562Z,82.52
2018-12-27T21:13:59.446Z,82.58
2018-12-27T21:16:28.847Z,82.77
2018-12-27T21:18:58.195Z,82.14
2018-12-27T21:21:27.039Z,82.07
2018-12-27T21:23:55.820Z,81.81
2018-12-27T21:26:25.783Z,81.41
2018-12-27T21:28:54.571Z,81.45
2018-12-27T21:31:23.367Z,82.14
2018-12-27T21:33:52.149Z,81.82
2018-12-27T21:36:21.820Z,82.36
2018-12-27T21:38:50.614Z,82.30
2018-12-27T21:41:19.610Z,81.61
2018-12-27T21:43:48.730Z,82.11
2018-12-27T21:46:17.599Z,82.25
2018-12-27T21:48:46.429Z,81.79
2018-12-27T21:51:15.259Z,82.49
2018-12-27T21:53:44.711Z,81.59
2018-12-27T21:56:13.540Z,81.79
2018-12-27T21:58:42.352Z,81.88
2018-12-27T22:01:12.366Z,82.20
2018-12-27T22:03:42.734Z,81.70
2018-12-27T22:06:11.618Z,81.58
2018-12-27T22:08:40.399Z,82.09
2018-12-27T22:11:09.658Z,81.62
2018-12-27T22:13:39.291Z,82.34
2018-12-27T22:16:08.217Z,82.66
2018-12-27T22:18:37.041Z,82.09
2018-12-27T22:21:06.965Z,82.07
2018-12-27T22:23:35.752Z,81.75
2018-12-27T22:26:05.196Z,82.55
2018-12-27T22:28:33.975Z,82.28
2018-12-27T22:31:02.879Z,81.75
2018-12-27T22:33:32.251Z,82.43
2018-12-27T22:36:01.305Z,82.36
2018-12-27T22:38:35.610Z,82.70
2018-12-27T22:40:58.978Z,82.04
2018-12-27T22:43:29.615Z,83.13
2018-12-27T22:45:58.939Z,82.76
2018-12-27T22:48:27.726Z,82.96
2018-12-27T22:50:57.189Z,82.08
2018-12-27T22:53:25.953Z,82.42
2018-12-27T22:55:56.726Z,83.85
2018-12-27T22:58:26.944Z,83.49
2018-12-27T23:00:57.235Z,84.14
2018-12-27T23:03:26.047Z,83.49
2018-12-27T23:05:54.898Z,83.21
2018-12-27T23:08:24.368Z,83.55
2018-12-27T23:10:53.173Z,84.68
2018-12-27T23:13:22.061Z,84.01
2018-12-27T23:15:51.488Z,83.92
2018-12-27T23:18:21.226Z,84.59
2018-12-27T23:20:50.057Z,84.80
2018-12-27T23:23:18.959Z,84.38
2018-12-27T23:25:48.768Z,84.63
2018-12-27T23:28:18.093Z,84.14
2018-12-27T23:30:46.885Z,83.39
2018-12-27T23:33:15.669Z,84.08
2018-12-27T23:35:44.503Z,84.27
2018-12-27T23:38:13.283Z,85.37
2018-12-27T23:40:42.179Z,85.29
2018-12-27T23:43:11.003Z,84.77
2018-12-27T23:45:39.787Z,84.69
2018-12-27T23:48:08.687Z,85.56
2018-12-27T23:50:37.459Z,85.17
2018-12-27T23:53:06.386Z,85.75
2018-12-27T23:55:36.178Z,85.66
2018-12-27T23:58:05.596Z,86.31
